Caribbean Ferry — WDD3415 — position and weather

sailwx.info

Track history (hours):
 
Tides and Currents Weather Stations Pressure Air Temp Water Temp Dewpoint Dewpoint Depression Visibility Wind Speed Wind Dir Waves Ship Positions

Caribbean Ferry

Owner: Cross Sound Ferry Services,Inc., New London, CT. More information available from US FCC via Universal Licensing System and Coast Guard Vessel Documentation Center.

Last reported at 2015-Jul-27 20:10 UTC. Time now 2015-Jul-30 12:07 UTC.
Position N 41°21' W 072°06'.

Length 36 m.

Type: Passenger vessel. MMSI: 367130960.

Date/timePositionNaut miles runAvg speedWind from/ knotsBaromVisibWave heightAir tempDewpointWater temp
2015-Jul-27 20:10N 41°21' W 072°06'5 8.8
2015-Jul-27 19:34N 41°16' W 072°06'9 9.1
2015-Jul-27 18:33N 41°09' W 072°14'4 3.7
2015-Jul-27 17:33N 41°12' W 072°12'1010.1
2015-Jul-27 16:33N 41°21' W 072°06'4 4.3
2015-Jul-27 15:33N 41°17' W 072°05'1010.4
2015-Jul-27 14:33N 41°09' W 072°14'5 4.8
2015-Jul-27 13:28N 41°13' W 072°10'9 9.6
2015-Jul-27 12:34N 41°21' W 072°06'  
2015-Jul-24 17:24N 41°13' W 072°11'9 1.8
2015-Jul-24 12:16N 41°21' W 072°06'3 0.2
2015-Jul-23 23:34N 41°18' W 072°05'1211.5
2015-Jul-23 22:34N 41°09' W 072°14'3 3.3
2015-Jul-23 21:34N 41°12' W 072°13'1010.5
2015-Jul-23 20:34N 41°21' W 072°05'3 3.4
2015-Jul-23 19:33N 41°18' W 072°05'1110.8
2015-Jul-23 18:34N 41°09' W 072°14'2 2.5
2015-Jul-23 17:34N 41°12' W 072°13'1111.1
2015-Jul-23 16:34N 41°21' W 072°05'3 2.8
2015-Jul-23 15:34N 41°18' W 072°05'1111.2
2015-Jul-23 14:34N 41°09' W 072°14'4 3.7
2015-Jul-23 13:34N 41°12' W 072°11'1010.0
2015-Jul-23 12:34N 41°21' W 072°05'0 0.1
2015-Jul-23 11:33N 41°21' W 072°06'  
2015-Jul-20 19:33N 41°18' W 072°05'1111.3
2015-Jul-20 18:33N 41°09' W 072°14'3 2.7
2015-Jul-20 17:33N 41°12' W 072°13'1111.0
2015-Jul-20 16:33N 41°21' W 072°05'5 4.7
2015-Jul-20 15:33N 41°17' W 072°06'10 9.7
2015-Jul-20 14:34N 41°09' W 072°14'3 3.4
2015-Jul-20 13:33N 41°12' W 072°12'1010.2
2015-Jul-20 12:33N 41°21' W 072°05'14 0.6
2015-Jul-19 15:33N 41°09' W 072°14'3 3.1
2015-Jul-19 14:33N 41°12' W 072°13'1110.9
2015-Jul-19 13:33N 41°21' W 072°06'4 0.3
2015-Jul-18 23:34N 41°18' W 072°05'1111.0
2015-Jul-18 22:34N 41°09' W 072°14'4 4.5
2015-Jul-18 21:34N 41°13' W 072°11'9 9.4
2015-Jul-18 20:34N 41°21' W 072°06'3 2.7
2015-Jul-18 19:34N 41°19' W 072°05'1211.7
2015-Jul-18 18:34N 41°09' W 072°14'3 3.2
2015-Jul-18 17:33N 41°12' W 072°13'1110.6
2015-Jul-18 16:34N 41°21' W 072°05'4 4.3
2015-Jul-18 15:33N 41°17' W 072°06'1010.0
2015-Jul-18 14:33N 41°09' W 072°14'3 3.3
2015-Jul-18 13:33N 41°12' W 072°14'1110.8
2015-Jul-18 12:33N 41°21' W 072°05'4 0.3
2015-Jul-17 23:33N 41°18' W 072°05'1110.8
2015-Jul-17 22:33N 41°09' W 072°14'4 4.2
2015-Jul-17 21:33N 41°13' W 072°11'10 9.7
2015-Jul-17 20:34N 41°21' W 072°05'  
Track history (hours):
 
Tides and Currents Weather Stations Pressure Air Temp Water Temp Dewpoint Dewpoint Depression Visibility Wind Speed Wind Dir Waves Ship Positions

Caribbean Ferry

Owner: Cross Sound Ferry Services,Inc., New London, CT. More information available from US FCC via Universal Licensing System and Coast Guard Vessel Documentation Center.

Last reported at 2015-Jul-27 20:10 UTC. Time now 2015-Jul-30 12:07 UTC.
Position N 41°21' W 072°06'.

Length 36 m.

Type: Passenger vessel. MMSI: 367130960.

Date/timePositionNaut miles runAvg speedWind from/ knotsBaromVisibWave heightAir tempDewpointWater temp
2015-Jul-27 20:10N 41°21' W 072°06'5 8.8
2015-Jul-27 19:34N 41°16' W 072°06'9 9.1
2015-Jul-27 18:33N 41°09' W 072°14'4 3.7
2015-Jul-27 17:33N 41°12' W 072°12'1010.1
2015-Jul-27 16:33N 41°21' W 072°06'4 4.3
2015-Jul-27 15:33N 41°17' W 072°05'1010.4
2015-Jul-27 14:33N 41°09' W 072°14'5 4.8
2015-Jul-27 13:28N 41°13' W 072°10'9 9.6
2015-Jul-27 12:34N 41°21' W 072°06'  
2015-Jul-24 17:24N 41°13' W 072°11'9 1.8
2015-Jul-24 12:16N 41°21' W 072°06'3 0.2
2015-Jul-23 23:34N 41°18' W 072°05'1211.5
2015-Jul-23 22:34N 41°09' W 072°14'3 3.3
2015-Jul-23 21:34N 41°12' W 072°13'1010.5
2015-Jul-23 20:34N 41°21' W 072°05'3 3.4
2015-Jul-23 19:33N 41°18' W 072°05'1110.8
2015-Jul-23 18:34N 41°09' W 072°14'2 2.5
2015-Jul-23 17:34N 41°12' W 072°13'1111.1
2015-Jul-23 16:34N 41°21' W 072°05'3 2.8
2015-Jul-23 15:34N 41°18' W 072°05'1111.2
2015-Jul-23 14:34N 41°09' W 072°14'4 3.7
2015-Jul-23 13:34N 41°12' W 072°11'1010.0
2015-Jul-23 12:34N 41°21' W 072°05'0 0.1
2015-Jul-23 11:33N 41°21' W 072°06'  
2015-Jul-20 19:33N 41°18' W 072°05'1111.3
2015-Jul-20 18:33N 41°09' W 072°14'3 2.7
2015-Jul-20 17:33N 41°12' W 072°13'1111.0
2015-Jul-20 16:33N 41°21' W 072°05'5 4.7
2015-Jul-20 15:33N 41°17' W 072°06'10 9.7
2015-Jul-20 14:34N 41°09' W 072°14'3 3.4
2015-Jul-20 13:33N 41°12' W 072°12'1010.2
2015-Jul-20 12:33N 41°21' W 072°05'14 0.6
2015-Jul-19 15:33N 41°09' W 072°14'3 3.1
2015-Jul-19 14:33N 41°12' W 072°13'1110.9
2015-Jul-19 13:33N 41°21' W 072°06'4 0.3
2015-Jul-18 23:34N 41°18' W 072°05'1111.0
2015-Jul-18 22:34N 41°09' W 072°14'4 4.5
2015-Jul-18 21:34N 41°13' W 072°11'9 9.4
2015-Jul-18 20:34N 41°21' W 072°06'3 2.7
2015-Jul-18 19:34N 41°19' W 072°05'1211.7
2015-Jul-18 18:34N 41°09' W 072°14'3 3.2
2015-Jul-18 17:33N 41°12' W 072°13'1110.6
2015-Jul-18 16:34N 41°21' W 072°05'4 4.3
2015-Jul-18 15:33N 41°17' W 072°06'1010.0
2015-Jul-18 14:33N 41°09' W 072°14'3 3.3
2015-Jul-18 13:33N 41°12' W 072°14'1110.8
2015-Jul-18 12:33N 41°21' W 072°05'4 0.3
2015-Jul-17 23:33N 41°18' W 072°05'1110.8
2015-Jul-17 22:33N 41°09' W 072°14'4 4.2
2015-Jul-17 21:33N 41°13' W 072°11'10 9.7
2015-Jul-17 20:34N 41°21' W 072°05'  

Dump ship's entire track history